sensor_id;sensor_type;location;lat;lon;timestamp;pressure;altitude;pressure_sealevel;temperature;humidity
69173;BME280;56280;49.662;8.408;2023-02-10T00:00:16;102698.53;;;-0.83;72.51
69173;BME280;56280;49.662;8.408;2023-02-10T00:02:42;102677.63;;;-0.97;72.40
69173;BME280;56280;49.662;8.408;2023-02-10T00:05:10;102660.25;;;-1.00;71.97
69173;BME280;56280;49.662;8.408;2023-02-10T00:07:40;102655.00;;;-1.06;71.58
69173;BME280;56280;49.662;8.408;2023-02-10T00:10:06;102620.19;;;-1.26;71.50
69173;BME280;56280;49.662;8.408;2023-02-10T00:12:39;102661.03;;;-1.33;72.57
69173;BME280;56280;49.662;8.408;2023-02-10T00:15:05;102690.56;;;-1.33;73.22
69173;BME280;56280;49.662;8.408;2023-02-10T00:17:31;102616.56;;;-1.70;72.97
69173;BME280;56280;49.662;8.408;2023-02-10T00:19:56;102640.66;;;-2.11;72.94
69173;BME280;56280;49.662;8.408;2023-02-10T00:22:21;102709.00;;;-2.40;76.54
69173;BME280;56280;49.662;8.408;2023-02-10T00:24:46;102727.31;;;-2.29;78.03
69173;BME280;56280;49.662;8.408;2023-02-10T00:27:12;102717.13;;;-2.00;76.54
69173;BME280;56280;49.662;8.408;2023-02-10T00:29:37;102735.66;;;-1.54;74.33
69173;BME280;56280;49.662;8.408;2023-02-10T00:32:02;102721.59;;;-1.80;74.14
69173;BME280;56280;49.662;8.408;2023-02-10T00:34:28;102730.22;;;-1.92;75.08
69173;BME280;56280;49.662;8.408;2023-02-10T00:36:53;102716.59;;;-1.50;74.74
69173;BME280;56280;49.662;8.408;2023-02-10T00:39:19;102713.94;;;-1.56;73.96
69173;BME280;56280;49.662;8.408;2023-02-10T00:41:44;102734.03;;;-1.36;73.07
69173;BME280;56280;49.662;8.408;2023-02-10T00:44:10;102713.06;;;-1.61;72.81
69173;BME280;56280;49.662;8.408;2023-02-10T00:46:36;102760.75;;;-1.70;73.33
69173;BME280;56280;49.662;8.408;2023-02-10T00:49:01;102735.38;;;-2.00;73.78
69173;BME280;56280;49.662;8.408;2023-02-10T00:51:26;102746.91;;;-1.64;73.04
69173;BME280;56280;49.662;8.408;2023-02-10T00:53:52;102717.38;;;-1.58;73.03
69173;BME280;56280;49.662;8.408;2023-02-10T00:56:18;102732.22;;;-1.50;72.43
69173;BME280;56280;49.662;8.408;2023-02-10T00:58:44;102747.94;;;-1.31;71.65
69173;BME280;56280;49.662;8.408;2023-02-10T01:01:10;102768.88;;;-1.19;71.29
69173;BME280;56280;49.662;8.408;2023-02-10T01:03:36;102713.81;;;-1.74;71.10
69173;BME280;56280;49.662;8.408;2023-02-10T01:06:02;102778.25;;;-1.52;71.80
69173;BME280;56280;49.662;8.408;2023-02-10T01:08:28;102779.03;;;-1.65;72.94
69173;BME280;56280;49.662;8.408;2023-02-10T01:11:05;102768.72;;;-1.45;72.77
69173;BME280;56280;49.662;8.408;2023-02-10T01:13:31;102746.97;;;-1.49;73.37
69173;BME280;56280;49.662;8.408;2023-02-10T01:15:59;102775.75;;;-1.33;73.41
69173;BME280;56280;49.662;8.408;2023-02-10T01:18:24;102745.22;;;-1.56;72.70
69173;BME280;56280;49.662;8.408;2023-02-10T01:20:49;102723.34;;;-1.81;73.06
69173;BME280;56280;49.662;8.408;2023-02-10T01:23:15;102751.25;;;-1.60;72.55
69173;BME280;56280;49.662;8.408;2023-02-10T01:25:40;102773.00;;;-1.59;72.91
69173;BME280;56280;49.662;8.408;2023-02-10T01:28:05;102717.06;;;-2.06;72.97
69173;BME280;56280;49.662;8.408;2023-02-10T01:30:31;102663.06;;;-2.35;72.68
69173;BME280;56280;49.662;8.408;2023-02-10T01:32:56;102777.41;;;-1.49;72.58
69173;BME280;56280;49.662;8.408;2023-02-10T01:35:22;102791.34;;;-1.44;72.35
69173;BME280;56280;49.662;8.408;2023-02-10T01:37:48;102780.09;;;-1.35;72.26
69173;BME280;56280;49.662;8.408;2023-02-10T01:40:14;102760.91;;;-1.43;71.64
69173;BME280;56280;49.662;8.408;2023-02-10T01:42:39;102749.53;;;-1.64;71.67
69173;BME280;56280;49.662;8.408;2023-02-10T01:45:37;102692.06;;;-1.83;71.80
69173;BME280;56280;49.662;8.408;2023-02-10T01:48:03;102780.94;;;-1.39;71.87
69173;BME280;56280;49.662;8.408;2023-02-10T01:50:34;102765.28;;;-1.42;71.71
69173;BME280;56280;49.662;8.408;2023-02-10T01:53:02;102732.16;;;-1.62;72.04
69173;BME280;56280;49.662;8.408;2023-02-10T01:55:31;102772.28;;;-1.35;71.69
69173;BME280;56280;49.662;8.408;2023-02-10T01:58:01;102759.94;;;-1.67;72.47
69173;BME280;56280;49.662;8.408;2023-02-10T02:00:26;102757.25;;;-1.76;72.71
69173;BME280;56280;49.662;8.408;2023-02-10T02:02:53;102782.59;;;-1.51;72.05
69173;BME280;56280;49.662;8.408;2023-02-10T02:05:22;102767.03;;;-1.40;71.31
69173;BME280;56280;49.662;8.408;2023-02-10T02:07:51;102774.81;;;-1.48;71.78
69173;BME280;56280;49.662;8.408;2023-02-10T02:10:16;102742.53;;;-1.67;72.18
69173;BME280;56280;49.662;8.408;2023-02-10T02:13:03;102788.72;;;-1.45;72.67
69173;BME280;56280;49.662;8.408;2023-02-10T02:15:46;102795.56;;;-1.61;72.59
69173;BME280;56280;49.662;8.408;2023-02-10T02:18:16;102799.06;;;-1.56;72.89
69173;BME280;56280;49.662;8.408;2023-02-10T02:20:53;102796.53;;;-1.49;72.72
69173;BME280;56280;49.662;8.408;2023-02-10T02:26:26;102801.91;;;-1.24;71.12
69173;BME280;56280;49.662;8.408;2023-02-10T02:31:49;102805.38;;;-1.23;70.43
69173;BME280;56280;49.662;8.408;2023-02-10T02:34:24;102772.16;;;-1.54;70.83
69173;BME280;56280;49.662;8.408;2023-02-10T02:37:01;102769.56;;;-1.54;70.65
69173;BME280;56280;49.662;8.408;2023-02-10T02:39:28;102796.53;;;-1.47;70.19
69173;BME280;56280;49.662;8.408;2023-02-10T02:42:13;102819.19;;;-1.34;70.34
69173;BME280;56280;49.662;8.408;2023-02-10T02:44:40;102811.31;;;-1.48;70.97
69173;BME280;56280;49.662;8.408;2023-02-10T02:47:13;102824.41;;;-1.38;71.49
69173;BME280;56280;49.662;8.408;2023-02-10T02:52:20;102771.94;;;-1.88;71.50
69173;BME280;56280;49.662;8.408;2023-02-10T02:54:58;102824.28;;;-1.55;71.94
69173;BME280;56280;49.662;8.408;2023-02-10T02:57:45;102790.28;;;-1.69;72.18
69173;BME280;56280;49.662;8.408;2023-02-10T03:00:17;102824.34;;;-1.48;72.33
69173;BME280;56280;49.662;8.408;2023-02-10T03:02:44;102786.78;;;-1.76;72.67
69173;BME280;56280;49.662;8.408;2023-02-10T03:05:11;102805.06;;;-1.71;72.77
69173;BME280;56280;49.662;8.408;2023-02-10T03:07:36;102804.22;;;-1.67;72.74
69173;BME280;56280;49.662;8.408;2023-02-10T03:10:03;102837.13;;;-1.83;73.56
69173;BME280;56280;49.662;8.408;2023-02-10T03:12:29;102805.66;;;-2.05;74.24
69173;BME280;56280;49.662;8.408;2023-02-10T03:14:54;102775.16;;;-2.20;73.92
69173;BME280;56280;49.662;8.408;2023-02-10T03:17:19;102786.56;;;-2.05;74.03
69173;BME280;56280;49.662;8.408;2023-02-10T03:19:44;102814.50;;;-1.87;73.75
69173;BME280;56280;49.662;8.408;2023-02-10T03:22:10;102824.94;;;-1.86;73.92
69173;BME280;56280;49.662;8.408;2023-02-10T03:24:35;102802.22;;;-2.02;73.35
69173;BME280;56280;49.662;8.408;2023-02-10T03:27:00;102778.50;;;-2.33;73.43
69173;BME280;56280;49.662;8.408;2023-02-10T03:29:25;102815.91;;;-2.25;74.05
69173;BME280;56280;49.662;8.408;2023-02-10T03:31:51;102797.09;;;-2.80;75.74
69173;BME280;56280;49.662;8.408;2023-02-10T03:34:16;102830.91;;;-2.80;76.73
69173;BME280;56280;49.662;8.408;2023-02-10T03:36:42;102824.06;;;-2.73;76.24
69173;BME280;56280;49.662;8.408;2023-02-10T03:39:07;102815.97;;;-2.97;75.58
69173;BME280;56280;49.662;8.408;2023-02-10T03:41:32;102817.91;;;-3.46;77.06
69173;BME280;56280;49.662;8.408;2023-02-10T03:43:58;102807.50;;;-3.47;77.89
69173;BME280;56280;49.662;8.408;2023-02-10T03:46:23;102822.16;;;-2.87;76.38
69173;BME280;56280;49.662;8.408;2023-02-10T03:48:48;102804.19;;;-2.67;75.23
69173;BME280;56280;49.662;8.408;2023-02-10T03:51:13;102801.69;;;-2.59;74.91
69173;BME280;56280;49.662;8.408;2023-02-10T03:53:39;102832.34;;;-2.29;74.11
69173;BME280;56280;49.662;8.408;2023-02-10T03:56:05;102833.19;;;-2.33;74.20
69173;BME280;56280;49.662;8.408;2023-02-10T03:58:31;102816.53;;;-2.49;74.27
69173;BME280;56280;49.662;8.408;2023-02-10T04:00:56;102823.31;;;-2.62;75.03
69173;BME280;56280;49.662;8.408;2023-02-10T04:03:21;102838.13;;;-2.58;75.26
69173;BME280;56280;49.662;8.408;2023-02-10T04:05:47;102825.09;;;-2.56;75.66
69173;BME280;56280;49.662;8.408;2023-02-10T04:08:12;102818.50;;;-2.26;74.39
69173;BME280;56280;49.662;8.408;2023-02-10T04:10:37;102828.16;;;-2.13;74.44
69173;BME280;56280;49.662;8.408;2023-02-10T04:13:03;102807.94;;;-2.40;74.99
69173;BME280;56280;49.662;8.408;2023-02-10T04:15:28;102799.97;;;-2.55;76.00
69173;BME280;56280;49.662;8.408;2023-02-10T04:17:53;102821.59;;;-2.61;76.84
69173;BME280;56280;49.662;8.408;2023-02-10T04:20:21;102836.53;;;-2.42;76.53
69173;BME280;56280;49.662;8.408;2023-02-10T04:22:46;102817.25;;;-2.62;76.12
69173;BME280;56280;49.662;8.408;2023-02-10T04:25:12;102861.13;;;-4.52;83.98
69173;BME280;56280;49.662;8.408;2023-02-10T04:27:37;102827.56;;;-4.43;86.96
69173;BME280;56280;49.662;8.408;2023-02-10T04:30:02;102852.31;;;-3.61;85.32
69173;BME280;56280;49.662;8.408;2023-02-10T04:32:28;102832.56;;;-2.87;82.78
69173;BME280;56280;49.662;8.408;2023-02-10T04:34:53;102843.47;;;-2.45;78.95
69173;BME280;56280;49.662;8.408;2023-02-10T04:37:18;102844.50;;;-2.28;77.16
69173;BME280;56280;49.662;8.408;2023-02-10T04:39:44;102783.41;;;-2.65;76.34
69173;BME280;56280;49.662;8.408;2023-02-10T04:42:09;102855.09;;;-2.12;75.26
69173;BME280;56280;49.662;8.408;2023-02-10T04:44:35;102842.63;;;-2.44;76.02
69173;BME280;56280;49.662;8.408;2023-02-10T04:47:00;102845.81;;;-2.67;76.98
69173;BME280;56280;49.662;8.408;2023-02-10T04:49:26;102875.47;;;-2.55;77.92
69173;BME280;56280;49.662;8.408;2023-02-10T04:51:52;102840.69;;;-2.62;77.38
69173;BME280;56280;49.662;8.408;2023-02-10T04:54:17;102861.75;;;-2.39;77.04
69173;BME280;56280;49.662;8.408;2023-02-10T04:56:43;102842.72;;;-2.35;76.60
69173;BME280;56280;49.662;8.408;2023-02-10T04:59:08;102865.41;;;-2.22;76.40
69173;BME280;56280;49.662;8.408;2023-02-10T05:01:34;102889.94;;;-2.01;76.54
69173;BME280;56280;49.662;8.408;2023-02-10T05:03:59;102867.44;;;-1.93;75.47
69173;BME280;56280;49.662;8.408;2023-02-10T05:06:25;102853.34;;;-2.13;77.75
69173;BME280;56280;49.662;8.408;2023-02-10T05:08:50;102880.34;;;-2.05;78.24
69173;BME280;56280;49.662;8.408;2023-02-10T05:11:16;102863.81;;;-2.07;78.31
69173;BME280;56280;49.662;8.408;2023-02-10T05:13:42;102893.28;;;-2.11;79.02
69173;BME280;56280;49.662;8.408;2023-02-10T05:16:09;102899.50;;;-1.97;78.73
69173;BME280;56280;49.662;8.408;2023-02-10T05:18:34;102876.91;;;-2.03;78.34
69173;BME280;56280;49.662;8.408;2023-02-10T05:21:00;102891.09;;;-1.70;76.80
69173;BME280;56280;49.662;8.408;2023-02-10T05:23:26;102869.16;;;-1.92;76.69
69173;BME280;56280;49.662;8.408;2023-02-10T05:25:52;102900.75;;;-1.55;75.83
69173;BME280;56280;49.662;8.408;2023-02-10T05:28:17;102864.06;;;-1.81;75.73
69173;BME280;56280;49.662;8.408;2023-02-10T05:30:43;102894.66;;;-1.57;75.84
69173;BME280;56280;49.662;8.408;2023-02-10T05:33:08;102898.25;;;-1.42;75.26
69173;BME280;56280;49.662;8.408;2023-02-10T05:35:34;102879.84;;;-1.64;75.96
69173;BME280;56280;49.662;8.408;2023-02-10T05:37:59;102877.94;;;-1.80;76.79
69173;BME280;56280;49.662;8.408;2023-02-10T05:40:27;102888.34;;;-1.84;77.45
69173;BME280;56280;49.662;8.408;2023-02-10T05:42:53;102876.97;;;-1.96;77.92
69173;BME280;56280;49.662;8.408;2023-02-10T05:45:18;102899.75;;;-1.74;78.03
69173;BME280;56280;49.662;8.408;2023-02-10T05:47:44;102850.22;;;-1.74;77.50
69173;BME280;56280;49.662;8.408;2023-02-10T05:50:09;102900.84;;;-1.45;76.93
69173;BME280;56280;49.662;8.408;2023-02-10T05:52:34;102895.53;;;-1.55;77.09
69173;BME280;56280;49.662;8.408;2023-02-10T05:54:59;102862.44;;;-1.68;77.63
69173;BME280;56280;49.662;8.408;2023-02-10T05:57:25;102879.06;;;-1.52;77.69
69173;BME280;56280;49.662;8.408;2023-02-10T05:59:50;102890.28;;;-1.64;78.10
69173;BME280;56280;49.662;8.408;2023-02-10T06:02:15;102888.84;;;-1.22;77.16
69173;BME280;56280;49.662;8.408;2023-02-10T06:04:40;102920.31;;;-0.93;76.28
69173;BME280;56280;49.662;8.408;2023-02-10T06:07:06;102901.16;;;-0.99;75.83
69173;BME280;56280;49.662;8.408;2023-02-10T06:09:31;102924.75;;;-0.79;76.24
69173;BME280;56280;49.662;8.408;2023-02-10T06:11:56;102902.06;;;-0.93;76.35
69173;BME280;56280;49.662;8.408;2023-02-10T06:14:22;102920.44;;;-0.74;75.21
69173;BME280;56280;49.662;8.408;2023-02-10T06:16:47;102930.09;;;-0.58;74.93
69173;BME280;56280;49.662;8.408;2023-02-10T06:19:12;102903.97;;;-0.61;74.19
69173;BME280;56280;49.662;8.408;2023-02-10T06:21:38;102899.59;;;-0.62;74.43
69173;BME280;56280;49.662;8.408;2023-02-10T06:24:03;102916.16;;;-0.58;74.17
69173;BME280;56280;49.662;8.408;2023-02-10T06:26:28;102929.22;;;-0.57;74.80
69173;BME280;56280;49.662;8.408;2023-02-10T06:28:54;102929.25;;;-0.49;74.83
69173;BME280;56280;49.662;8.408;2023-02-10T06:31:21;102932.41;;;-1.07;76.32
69173;BME280;56280;49.662;8.408;2023-02-10T06:33:46;102929.00;;;-0.95;77.00
69173;BME280;56280;49.662;8.408;2023-02-10T06:36:12;102916.88;;;-0.84;76.17
69173;BME280;56280;49.662;8.408;2023-02-10T06:38:38;102930.91;;;-0.63;76.29
69173;BME280;56280;49.662;8.408;2023-02-10T06:41:04;102912.53;;;-0.86;76.97
69173;BME280;56280;49.662;8.408;2023-02-10T06:43:29;102932.72;;;-0.53;75.93
69173;BME280;56280;49.662;8.408;2023-02-10T06:45:55;102940.56;;;-0.53;75.85
69173;BME280;56280;49.662;8.408;2023-02-10T06:48:20;102912.69;;;-0.56;75.62
69173;BME280;56280;49.662;8.408;2023-02-10T06:50:46;102907.19;;;-1.05;77.10
69173;BME280;56280;49.662;8.408;2023-02-10T06:53:11;102911.75;;;-0.71;77.33
69173;BME280;56280;49.662;8.408;2023-02-10T06:55:36;102899.63;;;-0.56;76.34
69173;BME280;56280;49.662;8.408;2023-02-10T06:58:02;102930.16;;;-0.36;76.26
69173;BME280;56280;49.662;8.408;2023-02-10T07:00:28;102936.19;;;-0.56;76.35
69173;BME280;56280;49.662;8.408;2023-02-10T07:02:54;102941.44;;;-0.52;76.35
69173;BME280;56280;49.662;8.408;2023-02-10T07:05:20;102951.88;;;-0.54;76.73
69173;BME280;56280;49.662;8.408;2023-02-10T07:07:46;102932.69;;;-0.62;77.24
69173;BME280;56280;49.662;8.408;2023-02-10T07:10:11;102942.25;;;-0.60;77.50
69173;BME280;56280;49.662;8.408;2023-02-10T07:12:37;102953.69;;;-0.31;76.99
69173;BME280;56280;49.662;8.408;2023-02-10T07:15:04;102943.97;;;-0.65;77.22
69173;BME280;56280;49.662;8.408;2023-02-10T07:17:29;102951.88;;;-0.51;77.64
69173;BME280;56280;49.662;8.408;2023-02-10T07:19:55;102933.47;;;-0.79;78.32
69173;BME280;56280;49.662;8.408;2023-02-10T07:22:20;102921.19;;;-0.92;79.63
69173;BME280;56280;49.662;8.408;2023-02-10T07:24:46;102921.31;;;-0.75;78.79
69173;BME280;56280;49.662;8.408;2023-02-10T07:27:11;102930.00;;;-0.75;79.22
69173;BME280;56280;49.662;8.408;2023-02-10T07:29:36;102925.81;;;-0.45;79.02
69173;BME280;56280;49.662;8.408;2023-02-10T07:32:02;102914.47;;;-0.45;78.28
69173;BME280;56280;49.662;8.408;2023-02-10T07:34:28;102917.00;;;-0.62;78.59
69173;BME280;56280;49.662;8.408;2023-02-10T07:36:56;102938.78;;;-0.57;78.56
69173;BME280;56280;49.662;8.408;2023-02-10T07:39:23;102933.47;;;-0.73;78.91
69173;BME280;56280;49.662;8.408;2023-02-10T07:41:49;102904.75;;;-0.82;79.05
69173;BME280;56280;49.662;8.408;2023-02-10T07:44:15;102935.34;;;-0.50;78.42
69173;BME280;56280;49.662;8.408;2023-02-10T07:46:40;102933.44;;;-0.82;78.78
69173;BME280;56280;49.662;8.408;2023-02-10T07:49:06;102937.06;;;-0.52;78.50
69173;BME280;56280;49.662;8.408;2023-02-10T07:51:31;102942.38;;;-0.35;77.89
69173;BME280;56280;49.662;8.408;2023-02-10T07:53:56;102938.84;;;-0.45;77.72
69173;BME280;56280;49.662;8.408;2023-02-10T07:56:22;102932.59;;;-0.78;79.08
69173;BME280;56280;49.662;8.408;2023-02-10T07:58:47;102947.53;;;-0.50;79.20
69173;BME280;56280;49.662;8.408;2023-02-10T08:01:12;102938.88;;;-0.31;78.08
69173;BME280;56280;49.662;8.408;2023-02-10T08:03:37;102931.06;;;-0.29;78.04
69173;BME280;56280;49.662;8.408;2023-02-10T08:06:03;102911.06;;;-0.15;77.29
69173;BME280;56280;49.662;8.408;2023-02-10T08:08:29;102888.31;;;-0.56;77.89
69173;BME280;56280;49.662;8.408;2023-02-10T08:10:54;102938.06;;;-0.25;77.97
69173;BME280;56280;49.662;8.408;2023-02-10T08:13:20;102922.41;;;-0.19;78.08
69173;BME280;56280;49.662;8.408;2023-02-10T08:15:46;102941.66;;;0.22;76.56
69173;BME280;56280;49.662;8.408;2023-02-10T08:18:11;102919.84;;;0.09;75.70
69173;BME280;56280;49.662;8.408;2023-02-10T08:20:36;102932.94;;;0.30;76.38
69173;BME280;56280;49.662;8.408;2023-02-10T08:23:01;102943.41;;;0.84;75.36
69173;BME280;56280;49.662;8.408;2023-02-10T08:25:27;102961.66;;;1.34;73.29
69173;BME280;56280;49.662;8.408;2023-02-10T08:27:52;102962.38;;;1.76;71.96
69173;BME280;56280;49.662;8.408;2023-02-10T08:30:18;102976.22;;;1.99;72.51
69173;BME280;56280;49.662;8.408;2023-02-10T08:32:43;102970.03;;;2.16;71.45
69173;BME280;56280;49.662;8.408;2023-02-10T08:35:08;102976.22;;;1.98;69.59
69173;BME280;56280;49.662;8.408;2023-02-10T08:37:34;102963.06;;;2.10;69.94
69173;BME280;56280;49.662;8.408;2023-02-10T08:39:59;102932.63;;;1.80;69.17
69173;BME280;56280;49.662;8.408;2023-02-10T08:42:25;102955.38;;;1.79;68.72
69173;BME280;56280;49.662;8.408;2023-02-10T08:44:50;102967.56;;;1.87;69.12
69173;BME280;56280;49.662;8.408;2023-02-10T08:47:16;102974.50;;;2.00;68.74
69173;BME280;56280;49.662;8.408;2023-02-10T08:49:42;102978.75;;;2.21;68.72
69173;BME280;56280;49.662;8.408;2023-02-10T08:52:07;102980.47;;;2.24;67.98
69173;BME280;56280;49.662;8.408;2023-02-10T08:54:33;102943.00;;;2.06;67.87
69173;BME280;56280;49.662;8.408;2023-02-10T08:56:58;102981.31;;;2.30;67.17
69173;BME280;56280;49.662;8.408;2023-02-10T08:59:24;102960.38;;;2.26;66.70
69173;BME280;56280;49.662;8.408;2023-02-10T09:01:50;102976.16;;;2.15;66.62
69173;BME280;56280;49.662;8.408;2023-02-10T09:04:15;102994.38;;;2.35;66.75
69173;BME280;56280;49.662;8.408;2023-02-10T09:06:41;102989.28;;;2.09;67.31
69173;BME280;56280;49.662;8.408;2023-02-10T09:09:09;102975.50;;;1.74;67.67
69173;BME280;56280;49.662;8.408;2023-02-10T09:11:35;102977.13;;;1.98;67.98
69173;BME280;56280;49.662;8.408;2023-02-10T09:14:01;102986.72;;;2.01;67.60
69173;BME280;56280;49.662;8.408;2023-02-10T09:16:26;103000.63;;;2.11;68.67
69173;BME280;56280;49.662;8.408;2023-02-10T09:18:52;102991.94;;;2.07;68.39
69173;BME280;56280;49.662;8.408;2023-02-10T09:21:17;103005.84;;;2.17;68.99
69173;BME280;56280;49.662;8.408;2023-02-10T09:23:42;103005.88;;;2.09;68.80
69173;BME280;56280;49.662;8.408;2023-02-10T09:26:08;102980.72;;;1.74;69.61
69173;BME280;56280;49.662;8.408;2023-02-10T09:28:34;102992.03;;;1.90;69.88
69173;BME280;56280;49.662;8.408;2023-02-10T09:30:59;103010.31;;;1.99;69.40
69173;BME280;56280;49.662;8.408;2023-02-10T09:33:24;103015.69;;;1.69;70.75
69173;BME280;56280;49.662;8.408;2023-02-10T09:35:50;102974.59;;;1.78;70.76
69173;BME280;56280;49.662;8.408;2023-02-10T09:38:15;102968.44;;;1.87;69.75
69173;BME280;56280;49.662;8.408;2023-02-10T09:46:16;103010.13;;;2.33;70.32
69173;BME280;56280;49.662;8.408;2023-02-10T09:53:50;103000.38;;;2.55;69.47
69173;BME280;56280;49.662;8.408;2023-02-10T09:56:20;103010.00;;;2.55;69.98
69173;BME280;56280;49.662;8.408;2023-02-10T09:58:51;103000.59;;;2.18;71.00
69173;BME280;56280;49.662;8.408;2023-02-10T10:03:54;103004.91;;;2.32;69.88
69173;BME280;56280;49.662;8.408;2023-02-10T10:06:28;103002.16;;;2.50;69.84
69173;BME280;56280;49.662;8.408;2023-02-10T10:11:43;102982.91;;;2.51;69.59
69173;BME280;56280;49.662;8.408;2023-02-10T10:14:24;103010.75;;;2.72;69.33
69173;BME280;56280;49.662;8.408;2023-02-10T10:30:51;103014.06;;;2.95;67.83
69173;BME280;56280;49.662;8.408;2023-02-10T10:35:46;103000.56;;;3.32;66.21
69173;BME280;56280;49.662;8.408;2023-02-10T10:38:14;103013.53;;;3.50;66.35
69173;BME280;56280;49.662;8.408;2023-02-10T10:40:40;102987.28;;;3.47;65.61
69173;BME280;56280;49.662;8.408;2023-02-10T10:43:13;102990.88;;;3.40;65.60
69173;BME280;56280;49.662;8.408;2023-02-10T10:45:48;103006.38;;;3.64;64.63
69173;BME280;56280;49.662;8.408;2023-02-10T10:48:18;103002.94;;;3.59;64.70
69173;BME280;56280;49.662;8.408;2023-02-10T10:50:49;103004.78;;;3.51;64.71
69173;BME280;56280;49.662;8.408;2023-02-10T10:53:43;103002.22;;;3.43;66.97
69173;BME280;56280;49.662;8.408;2023-02-10T10:56:43;103000.25;;;3.64;65.79
69173;BME280;56280;49.662;8.408;2023-02-10T10:59:33;102984.66;;;3.47;65.36
69173;BME280;56280;49.662;8.408;2023-02-10T11:02:15;102984.56;;;3.56;65.76
69173;BME280;56280;49.662;8.408;2023-02-10T11:04:40;103003.00;;;3.53;65.21
69173;BME280;56280;49.662;8.408;2023-02-10T11:07:12;102994.03;;;3.70;65.25
69173;BME280;56280;49.662;8.408;2023-02-10T11:09:49;102968.44;;;3.84;64.80
69173;BME280;56280;49.662;8.408;2023-02-10T11:14:45;102960.88;;;3.59;64.65
69173;BME280;56280;49.662;8.408;2023-02-10T11:20:00;102968.50;;;3.78;65.01
69173;BME280;56280;49.662;8.408;2023-02-10T11:22:27;102962.22;;;3.91;64.02
69173;BME280;56280;49.662;8.408;2023-02-10T11:24:55;102968.44;;;3.82;64.82
69173;BME280;56280;49.662;8.408;2023-02-10T11:27:22;102965.69;;;3.95;65.00
69173;BME280;56280;49.662;8.408;2023-02-10T11:29:55;102934.13;;;3.93;63.98
69173;BME280;56280;49.662;8.408;2023-02-10T11:32:29;102939.34;;;3.96;63.73
69173;BME280;56280;49.662;8.408;2023-02-10T11:34:58;102965.41;;;4.12;63.44
69173;BME280;56280;49.662;8.408;2023-02-10T11:37:34;102964.94;;;3.85;63.85
69173;BME280;56280;49.662;8.408;2023-02-10T11:40:04;102959.25;;;4.16;65.21
69173;BME280;56280;49.662;8.408;2023-02-10T11:42:32;102964.28;;;4.30;65.02
69173;BME280;56280;49.662;8.408;2023-02-10T11:45:17;102971.97;;;4.44;63.01
69173;BME280;56280;49.662;8.408;2023-02-10T11:47:43;102948.00;;;4.05;64.21
69173;BME280;56280;49.662;8.408;2023-02-10T11:50:26;102949.69;;;4.09;64.13
69173;BME280;56280;49.662;8.408;2023-02-10T11:52:52;102922.56;;;4.05;63.36
69173;BME280;56280;49.662;8.408;2023-02-10T11:55:18;102954.94;;;4.09;64.88
69173;BME280;56280;49.662;8.408;2023-02-10T11:58:05;102944.16;;;4.27;64.26
69173;BME280;56280;49.662;8.408;2023-02-10T12:01:02;102956.78;;;4.61;63.14
69173;BME280;56280;49.662;8.408;2023-02-10T12:03:44;102949.63;;;4.13;63.72
69173;BME280;56280;49.662;8.408;2023-02-10T12:11:25;102929.50;;;4.65;62.26
69173;BME280;56280;49.662;8.408;2023-02-10T12:14:00;102952.28;;;4.68;61.90
69173;BME280;56280;49.662;8.408;2023-02-10T12:17:17;102959.97;;;4.80;63.26
69173;BME280;56280;49.662;8.408;2023-02-10T12:23:05;102942.63;;;5.17;60.61
69173;BME280;56280;49.662;8.408;2023-02-10T12:26:01;102927.06;;;5.04;60.84
69173;BME280;56280;49.662;8.408;2023-02-10T12:28:33;102911.88;;;4.70;61.89
69173;BME280;56280;49.662;8.408;2023-02-10T12:42:34;102930.00;;;5.33;59.24
69173;BME280;56280;49.662;8.408;2023-02-10T12:53:17;102920.44;;;5.71;57.18
69173;BME280;56280;49.662;8.408;2023-02-10T12:56:01;102904.16;;;5.91;57.04
69173;BME280;56280;49.662;8.408;2023-02-10T13:03:40;102891.22;;;6.20;55.82
69173;BME280;56280;49.662;8.408;2023-02-10T13:06:27;102864.31;;;6.05;55.39
69173;BME280;56280;49.662;8.408;2023-02-10T13:12:02;102911.72;;;6.45;55.80
69173;BME280;56280;49.662;8.408;2023-02-10T13:14:29;102909.22;;;6.75;55.54
69173;BME280;56280;49.662;8.408;2023-02-10T13:16:57;102888.00;;;6.78;55.50
69173;BME280;56280;49.662;8.408;2023-02-10T13:19:44;102904.94;;;7.04;54.76
69173;BME280;56280;49.662;8.408;2023-02-10T13:22:44;102868.16;;;6.62;54.26
69173;BME280;56280;49.662;8.408;2023-02-10T13:27:52;102902.38;;;6.66;54.68
69173;BME280;56280;49.662;8.408;2023-02-10T13:30:33;102880.47;;;6.63;54.73
69173;BME280;56280;49.662;8.408;2023-02-10T13:33:20;102878.22;;;6.82;53.96
69173;BME280;56280;49.662;8.408;2023-02-10T13:35:49;102884.28;;;6.85;55.07
69173;BME280;56280;49.662;8.408;2023-02-10T13:38:18;102888.66;;;6.86;54.88
69173;BME280;56280;49.662;8.408;2023-02-10T13:40:50;102866.44;;;6.93;54.97
69173;BME280;56280;49.662;8.408;2023-02-10T13:43:24;102876.72;;;7.04;54.32
69173;BME280;56280;49.662;8.408;2023-02-10T13:45:53;102866.81;;;7.11;54.60
69173;BME280;56280;49.662;8.408;2023-02-10T13:48:28;102884.00;;;7.26;53.88
69173;BME280;56280;49.662;8.408;2023-02-10T13:51:06;102883.00;;;6.99;54.15
69173;BME280;56280;49.662;8.408;2023-02-10T13:56:23;102885.94;;;6.89;54.90
69173;BME280;56280;49.662;8.408;2023-02-10T13:58:56;102883.16;;;6.94;54.71
69173;BME280;56280;49.662;8.408;2023-02-10T14:02:00;102874.66;;;6.83;54.98
69173;BME280;56280;49.662;8.408;2023-02-10T14:04:46;102872.69;;;6.91;55.14
69173;BME280;56280;49.662;8.408;2023-02-10T14:09:46;102878.63;;;6.99;54.05
69173;BME280;56280;49.662;8.408;2023-02-10T14:12:26;102873.09;;;6.75;54.14
69173;BME280;56280;49.662;8.408;2023-02-10T14:14:52;102853.69;;;6.77;54.64
69173;BME280;56280;49.662;8.408;2023-02-10T14:17:23;102822.13;;;6.72;53.93
69173;BME280;56280;49.662;8.408;2023-02-10T14:19:54;102795.16;;;6.59;53.55
69173;BME280;56280;49.662;8.408;2023-02-10T14:24:57;102854.72;;;7.34;53.64
69173;BME280;56280;49.662;8.408;2023-02-10T14:27:25;102856.47;;;7.35;53.10
69173;BME280;56280;49.662;8.408;2023-02-10T14:29:53;102814.53;;;6.91;53.35
69173;BME280;56280;49.662;8.408;2023-02-10T14:32:19;102805.22;;;6.78;54.54